createdAt,value
2018-01-04T20:03:44.951Z,99.90
2018-01-04T20:06:13.734Z,99.90
2018-01-04T20:08:42.448Z,99.90
2018-01-04T20:11:11.159Z,99.90
2018-01-04T20:13:39.101Z,99.90
2018-01-04T20:16:08.433Z,99.90
2018-01-04T20:18:37.707Z,99.90
2018-01-04T20:21:06.273Z,99.90
2018-01-04T20:23:35.601Z,99.90
2018-01-04T20:26:04.866Z,99.90
2018-01-04T20:28:33.430Z,99.90
2018-01-04T20:31:01.986Z,99.90
2018-01-04T20:33:30.517Z,99.90
2018-01-04T20:35:59.874Z,99.90
2018-01-04T20:38:32.231Z,99.90
2018-01-04T20:41:00.787Z,99.90
2018-01-04T20:43:30.102Z,99.90
2018-01-04T20:45:59.482Z,99.90
2018-01-04T20:48:28.035Z,99.90
2018-01-04T20:50:56.568Z,99.90
2018-01-04T20:53:25.138Z,99.90
2018-01-04T20:55:53.722Z,99.90
2018-01-04T20:58:23.114Z,99.90
2018-01-04T21:00:51.077Z,99.90
2018-01-04T21:03:19.607Z,99.90
2018-01-04T21:05:48.127Z,99.90
2018-01-04T21:08:16.701Z,99.90
2018-01-04T21:10:45.267Z,99.90
2018-01-04T21:13:13.961Z,99.90
2018-01-04T21:15:42.482Z,99.90
2018-01-04T21:18:11.960Z,99.90
2018-01-04T21:20:40.482Z,99.90
2018-01-04T21:23:09.812Z,99.90
2018-01-04T21:25:40.179Z,99.90
2018-01-04T21:28:08.714Z,99.90
2018-01-04T21:30:37.266Z,99.90
2018-01-04T21:33:06.554Z,99.90
2018-01-04T21:35:35.096Z,99.90
2018-01-04T21:38:03.639Z,99.90
2018-01-04T21:40:32.912Z,99.90
2018-01-04T21:43:01.469Z,99.90
2018-01-04T21:45:30.007Z,99.90
2018-01-04T21:47:59.323Z,99.90
2018-01-04T21:50:27.546Z,99.90
2018-01-04T21:52:56.130Z,99.90
2018-01-04T21:55:24.368Z,99.90
2018-01-04T21:57:53.977Z,99.90
2018-01-04T22:00:22.541Z,99.90
2018-01-04T22:02:51.081Z,99.90
2018-01-04T22:05:19.590Z,99.90
2018-01-04T22:07:48.170Z,99.90
2018-01-04T22:10:16.719Z,99.90
2018-01-04T22:12:45.307Z,99.90
2018-01-04T22:15:13.876Z,99.90
2018-01-04T22:17:42.397Z,99.90
2018-01-04T22:20:11.731Z,99.90
2018-01-04T22:22:40.279Z,99.90
2018-01-04T22:25:08.819Z,99.90
2018-01-04T22:27:37.369Z,99.90
2018-01-04T22:30:05.952Z,98.80
2018-01-04T22:32:34.027Z,96.20
2018-01-04T22:35:02.555Z,95.50
2018-01-04T22:37:35.749Z,95.80
2018-01-04T22:40:04.338Z,94.90
2018-01-04T22:42:32.869Z,93.40
2018-01-04T22:45:01.422Z,92.50
2018-01-04T22:47:30.747Z,91.10
2018-01-04T22:49:59.296Z,90.30
2018-01-04T22:52:27.875Z,89.20
2018-01-04T22:54:56.445Z,89.20
2018-01-04T22:57:25.030Z,90.00
2018-01-04T22:59:53.536Z,89.80
2018-01-04T23:02:22.956Z,85.40
2018-01-04T23:04:51.494Z,85.90
2018-01-04T23:07:19.989Z,84.40
2018-01-04T23:09:48.546Z,82.80
2018-01-04T23:12:17.156Z,81.60
2018-01-04T23:14:45.662Z,81.80
2018-01-04T23:17:14.955Z,78.30
2018-01-04T23:19:44.258Z,75.90
2018-01-04T23:22:13.507Z,75.80
2018-01-04T23:24:42.050Z,76.40
2018-01-04T23:27:11.310Z,75.70
2018-01-04T23:29:39.818Z,76.40
2018-01-04T23:32:09.101Z,75.60
2018-01-04T23:34:37.682Z,75.80
2018-01-04T23:37:06.252Z,76.20
2018-01-04T23:39:34.787Z,75.60
2018-01-04T23:42:04.324Z,75.50
2018-01-04T23:44:32.841Z,76.10
2018-01-04T23:47:01.379Z,73.50
2018-01-04T23:49:29.949Z,73.10
2018-01-04T23:51:58.497Z,71.50
2018-01-04T23:54:27.849Z,71.30
2018-01-04T23:56:56.397Z,71.30
2018-01-04T23:59:25.650Z,73.10
